Time;durP1;ratioP1;P1;durP2;ratioP2;P2;SDS_P1;SDS_P2;PMS_P1;PMS_P2;Temp;Humidity;BMP_temperature;BMP_pressure;BME280_temperature;BME280_humidity;BME280_pressure;Samples;Min_cycle;Max_cycle;Signal;HPM_P1;HPM_P2
2022/01/19 00:01:46;;;;;;;0.30;0.30;;;1.50;99.90;;;;;;4936004;29;20458;-77
2022/01/19 00:04:12;;;;;;;0.30;0.30;;;1.50;99.90;;;;;;4936336;29;20459;-78
2022/01/19 00:06:39;;;;;;;0.30;0.30;;;1.50;99.90;;;;;;4936007;29;20943;-78
2022/01/19 00:09:06;;;;;;;0.30;0.30;;;1.50;99.90;;;;;;4936255;29;20561;-78
2022/01/19 00:11:34;;;;;;;0.30;0.20;;;1.50;99.90;;;;;;4936277;29;20454;-78
2022/01/19 00:14:01;;;;;;;0.30;0.20;;;1.40;99.90;;;;;;4936142;29;20498;-78
2022/01/19 00:16:28;;;;;;;0.30;0.30;;;1.30;99.90;;;;;;4936249;29;20797;-78
2022/01/19 00:18:55;;;;;;;0.30;0.30;;;1.20;99.90;;;;;;4936213;29;20498;-78
2022/01/19 00:21:22;;;;;;;1.10;0.83;;;1.20;99.90;;;;;;4935895;29;20440;-78
2022/01/19 00:23:48;;;;;;;0.30;0.20;;;1.10;99.90;;;;;;4936074;29;20471;-78
2022/01/19 00:26:15;;;;;;;0.30;0.20;;;1.10;99.90;;;;;;4936124;29;20454;-78
2022/01/19 00:28:43;;;;;;;0.67;0.67;;;1.00;99.90;;;;;;4935697;29;21006;-78
2022/01/19 00:31:10;;;;;;;0.30;0.30;;;0.90;99.90;;;;;;4935751;29;20951;-78
2022/01/19 00:33:38;;;;;;;0.30;0.30;;;0.90;99.90;;;;;;4936022;29;20471;-78
2022/01/19 00:36:05;;;;;;;0.40;0.40;;;0.90;99.90;;;;;;4936035;29;20555;-78
2022/01/19 00:38:32;;;;;;;1.17;0.70;;;0.80;99.90;;;;;;4935987;29;20443;-78
2022/01/19 00:40:58;;;;;;;0.40;0.40;;;0.80;99.90;;;;;;4936014;29;20458;-78
2022/01/19 00:43:25;;;;;;;0.30;0.20;;;0.80;99.90;;;;;;4935627;29;20446;-78
2022/01/19 00:45:53;;;;;;;0.30;0.30;;;0.70;99.90;;;;;;4935976;29;20439;-78
2022/01/19 00:48:20;;;;;;;0.30;0.30;;;0.70;99.90;;;;;;4935865;29;20490;-78
2022/01/19 00:50:47;;;;;;;0.30;0.30;;;0.70;99.90;;;;;;4935913;29;20823;-78
2022/01/19 00:53:13;;;;;;;0.60;0.60;;;0.70;99.90;;;;;;4935782;29;20452;-78
2022/01/19 00:55:40;;;;;;;0.40;0.30;;;0.70;99.90;;;;;;4935505;29;20840;-78
2022/01/19 00:58:07;;;;;;;0.30;0.30;;;0.70;99.90;;;;;;4935545;29;20935;-78
2022/01/19 01:00:34;;;;;;;0.40;0.40;;;0.70;99.90;;;;;;4935835;29;20455;-78
2022/01/19 01:03:02;;;;;;;0.30;0.30;;;0.60;99.90;;;;;;4935797;29;20458;-78
2022/01/19 01:05:29;;;;;;;0.30;0.30;;;0.60;99.90;;;;;;4935415;29;20475;-77
2022/01/19 01:07:56;;;;;;;0.30;0.30;;;0.60;99.90;;;;;;4935681;29;20478;-76
2022/01/19 01:10:23;;;;;;;0.30;0.30;;;0.60;99.90;;;;;;4935703;29;20450;-76
2022/01/19 01:12:52;;;;;;;0.30;0.30;;;0.60;99.90;;;;;;4935433;29;20494;-76
2022/01/19 01:15:27;;;;;;;0.30;0.30;;;0.60;99.90;;;;;;4938741;29;20855;-77
2022/01/19 01:20:39;;;;;;;0.40;0.40;;;0.60;99.90;;;;;;4922913;29;20471;-77
2022/01/19 01:23:06;;;;;;;3.60;0.57;;;0.60;99.90;;;;;;4938962;29;20782;-76
2022/01/19 01:25:33;;;;;;;0.47;0.40;;;0.60;99.90;;;;;;4938699;29;21010;-77
2022/01/19 01:28:00;;;;;;;0.30;0.20;;;0.70;99.90;;;;;;4939001;29;20466;-76
2022/01/19 01:30:27;;;;;;;0.40;0.40;;;0.70;99.90;;;;;;4939044;29;20451;-77
2022/01/19 01:32:54;;;;;;;0.40;0.40;;;0.70;99.90;;;;;;4938771;29;20447;-76
2022/01/19 01:35:20;;;;;;;0.30;0.30;;;0.80;99.90;;;;;;4938668;29;20470;-77
2022/01/19 01:37:48;;;;;;;0.90;0.40;;;0.80;99.90;;;;;;4938903;29;20465;-77
2022/01/19 01:40:15;;;;;;;0.30;0.20;;;0.90;99.90;;;;;;4938886;29;20451;-77
2022/01/19 01:42:44;;;;;;;0.30;0.20;;;0.90;99.90;;;;;;4938812;29;20447;-77
2022/01/19 01:45:13;;;;;;;0.30;0.20;;;0.90;99.90;;;;;;4938735;29;20482;-77
2022/01/19 01:47:45;;;;;;;0.30;0.20;;;1.00;99.90;;;;;;4938740;29;20454;-77
2022/01/19 01:55:42;;;;;;;0.83;0.83;;;1.00;99.90;;;;;;4938342;29;20847;-77
2022/01/19 01:58:09;;;;;;;0.30;0.30;;;1.00;99.90;;;;;;4938520;29;20447;-77
2022/01/19 02:00:36;;;;;;;0.30;0.30;;;1.00;99.90;;;;;;4938521;29;20451;-77
2022/01/19 02:03:02;;;;;;;0.30;0.20;;;0.90;99.90;;;;;;4938111;29;20458;-77
2022/01/19 02:05:31;;;;;;;0.30;0.20;;;0.90;99.90;;;;;;4938350;29;20467;-77
2022/01/19 02:08:07;;;;;;;0.43;0.40;;;0.90;99.90;;;;;;4938088;29;20459;-77
2022/01/19 02:10:40;;;;;;;0.30;0.30;;;0.90;99.90;;;;;;4938342;29;20885;-77
2022/01/19 02:16:13;;;;;;;0.30;0.30;;;0.90;99.90;;;;;;4938314;29;20411;-77
2022/01/19 02:21:40;;;;;;;0.30;0.30;;;1.00;99.90;;;;;;4938255;29;20835;-77
2022/01/19 02:24:10;;;;;;;0.30;0.20;;;0.90;99.90;;;;;;4937727;29;20475;-77
2022/01/19 02:26:51;;;;;;;0.30;0.30;;;0.90;99.90;;;;;;4937804;29;20786;-77
2022/01/19 02:29:42;;;;;;;0.40;0.40;;;0.80;99.90;;;;;;4938501;29;20514;-77
2022/01/19 02:40:25;;;;;;;0.30;0.30;;;0.60;99.90;;;;;;4937658;29;20411;-77
2022/01/19 02:42:56;;;;;;;0.30;0.30;;;0.60;99.90;;;;;;4937731;29;20462;-77
2022/01/19 02:50:52;;;;;;;0.30;0.27;;;0.60;99.90;;;;;;4937898;29;20893;-77
2022/01/19 02:53:21;;;;;;;5.70;0.53;;;0.60;99.90;;;;;;4937463;29;20508;-77
2022/01/19 02:55:47;;;;;;;0.30;0.20;;;0.60;99.90;;;;;;4937455;29;20494;-77
2022/01/19 02:58:18;;;;;;;0.30;0.20;;;0.60;99.90;;;;;;4937428;29;20451;-77
2022/01/19 03:08:42;;;;;;;0.50;0.50;;;0.40;99.90;;;;;;4937412;29;20475;-77
2022/01/19 03:09:05;;;;;;;0.30;0.30;;;0.40;99.90;;;;;;4936729;29;20487;-77
2022/01/19 03:11:32;;;;;;;0.30;0.20;;;0.40;99.90;;;;;;4936935;29;20896;-77
2022/01/19 03:13:59;;;;;;;0.30;0.20;;;0.30;99.90;;;;;;4937092;29;20475;-77
2022/01/19 03:16:25;;;;;;;0.30;0.30;;;0.30;99.90;;;;;;4936838;29;20948;-77
2022/01/19 03:18:52;;;;;;;0.30;0.30;;;0.30;99.90;;;;;;4937060;29;20459;-77
2022/01/19 03:21:19;;;;;;;0.30;0.30;;;0.30;99.90;;;;;;4937019;29;20460;-77
2022/01/19 03:23:46;;;;;;;0.30;0.30;;;0.40;99.90;;;;;;4936865;29;20479;-77
2022/01/19 03:26:14;;;;;;;0.30;0.30;;;0.40;99.90;;;;;;4936938;29;20463;-77
2022/01/19 03:28:41;;;;;;;0.30;0.30;;;0.40;99.90;;;;;;4937065;29;20454;-77
2022/01/19 03:31:08;;;;;;;0.30;0.20;;;0.30;99.90;;;;;;4936584;29;20455;-78
2022/01/19 03:33:35;;;;;;;0.60;0.60;;;0.30;99.90;;;;;;4936775;29;20486;-78
2022/01/19 03:36:02;;;;;;;0.30;0.30;;;0.30;99.90;;;;;;4936170;29;20459;-78
2022/01/19 03:38:28;;;;;;;0.30;0.27;;;0.40;99.90;;;;;;4936742;29;20459;-78
2022/01/19 03:40:55;;;;;;;0.30;0.20;;;0.30;99.90;;;;;;4936422;29;20951;-78
2022/01/19 03:43:23;;;;;;;0.30;0.30;;;0.30;99.90;;;;;;4936317;29;20447;-78
2022/01/19 03:45:53;;;;;;;0.30;0.30;;;0.20;99.90;;;;;;4937193;29;20458;-79
2022/01/19 03:48:35;;;;;;;0.40;0.40;;;0.20;99.90;;;;;;4936565;29;20462;-79
2022/01/19 03:51:02;;;;;;;0.30;0.20;;;0.10;99.90;;;;;;4936583;29;20435;-79
2022/01/19 03:53:29;;;;;;;0.30;0.30;;;0.10;99.90;;;;;;4936407;29;20454;-79
2022/01/19 03:55:56;;;;;;;0.50;0.50;;;0.10;99.90;;;;;;4936046;29;20861;-80
2022/01/19 03:58:24;;;;;;;0.30;0.30;;;0.10;99.90;;;;;;4936455;29;20456;-79
2022/01/19 04:00:55;;;;;;;0.30;0.30;;;0.10;99.90;;;;;;4936401;29;20447;-79
2022/01/19 04:03:28;;;;;;;0.60;0.40;;;0.10;99.90;;;;;;4936542;29;20443;-79
2022/01/19 04:06:00;;;;;;;0.30;0.30;;;0.00;99.90;;;;;;4936107;29;20900;-79
2022/01/19 04:08:27;;;;;;;0.30;0.30;;;0.00;99.90;;;;;;4936547;29;20439;-79
2022/01/19 04:10:54;;;;;;;0.30;0.30;;;-0.10;99.90;;;;;;4936226;29;20497;-79
2022/01/19 04:13:31;;;;;;;0.30;0.30;;;-0.10;99.90;;;;;;4935919;29;20935;-79
2022/01/19 04:15:59;;;;;;;0.30;0.30;;;-0.10;99.90;;;;;;4936279;29;20439;-79
2022/01/19 04:18:27;;;;;;;0.30;0.30;;;-0.10;99.90;;;;;;4936150;29;20866;-80
2022/01/19 04:20:54;;;;;;;0.43;0.43;;;-0.10;99.90;;;;;;4936427;29;20451;-79
2022/01/19 04:23:22;;;;;;;0.30;0.30;;;-0.10;99.90;;;;;;4936114;29;20501;-79
2022/01/19 04:25:49;;;;;;;0.30;0.30;;;0.00;99.90;;;;;;4936116;29;20495;-79
2022/01/19 04:28:16;;;;;;;0.30;0.30;;;0.00;99.90;;;;;;4936105;29;20451;-79
2022/01/19 04:30:43;;;;;;;0.90;0.43;;;0.10;99.90;;;;;;4936013;29;20486;-79
2022/01/19 04:33:13;;;;;;;0.30;0.20;;;0.20;99.90;;;;;;4936063;29;20912;-79
2022/01/19 04:35:49;;;;;;;0.30;0.30;;;0.30;99.90;;;;;;4936059;29;20482;-79
2022/01/19 04:44:29;;;;;;;0.30;0.20;;;0.70;99.90;;;;;;4935888;29;20446;-78
2022/01/19 05:03:33;;;;;;;0.50;0.50;;;0.60;99.90;;;;;;4939817;29;20414;-78
2022/01/19 05:06:06;;;;;;;2.20;1.80;;;0.60;99.90;;;;;;4939564;29;20902;-79
2022/01/19 05:08:52;;;;;;;0.33;0.33;;;0.50;99.90;;;;;;4939476;29;20530;-79
2022/01/19 05:14:04;;;;;;;0.63;0.40;;;0.50;99.90;;;;;;4939232;29;20449;-79
2022/01/19 05:16:30;;;;;;;0.60;0.60;;;0.60;99.90;;;;;;4938995;29;20459;-79
2022/01/19 05:18:57;;;;;;;0.30;0.30;;;0.60;99.90;;;;;;4939054;29;20450;-78
2022/01/19 05:21:25;;;;;;;0.30;0.20;;;0.60;99.90;;;;;;4940020;29;20451;-78
2022/01/19 05:23:52;;;;;;;0.30;0.20;;;0.60;99.90;;;;;;4939120;29;20474;-78
2022/01/19 05:26:19;;;;;;;0.30;0.30;;;0.60;99.90;;;;;;4939141;29;20465;-78
2022/01/19 05:28:46;;;;;;;0.57;0.57;;;0.60;99.90;;;;;;4939129;29;20454;-78
2022/01/19 05:31:13;;;;;;;0.30;0.20;;;0.50;99.90;;;;;;4938681;29;20490;-78
2022/01/19 05:33:40;;;;;;;0.83;0.83;;;0.60;99.90;;;;;;4938647;29;20486;-78
2022/01/19 05:36:06;;;;;;;0.30;0.30;;;0.60;99.90;;;;;;4939194;29;20463;-78
2022/01/19 05:38:35;;;;;;;0.30;0.30;;;0.60;99.90;;;;;;4938899;29;20447;-79
2022/01/19 05:41:01;;;;;;;0.30;0.30;;;0.70;99.90;;;;;;4938914;29;20458;-79
2022/01/19 05:43:28;;;;;;;0.30;0.30;;;0.70;99.90;;;;;;4938787;29;20458;-78
2022/01/19 05:45:55;;;;;;;0.30;0.30;;;0.70;99.90;;;;;;4938827;29;20449;-79
2022/01/19 05:48:23;;;;;;;0.30;0.30;;;0.70;99.90;;;;;;4938471;29;20449;-79
2022/01/19 05:50:51;;;;;;;0.30;0.30;;;0.70;99.90;;;;;;4938590;29;20479;-79
2022/01/19 05:53:17;;;;;;;0.30;0.20;;;0.70;99.90;;;;;;4938557;29;20462;-79
2022/01/19 05:55:46;;;;;;;0.87;0.50;;;0.60;99.90;;;;;;4938255;29;20486;-79
2022/01/19 05:58:13;;;;;;;0.33;0.27;;;0.60;99.90;;;;;;4938542;29;20436;-79
2022/01/19 06:00:40;;;;;;;0.30;0.20;;;0.50;99.90;;;;;;4937840;29;20459;-79
2022/01/19 06:03:06;;;;;;;0.30;0.30;;;0.50;99.90;;;;;;4938207;29;20948;-79
2022/01/19 06:05:34;;;;;;;0.30;0.23;;;0.50;99.90;;;;;;4938064;29;21006;-80
2022/01/19 06:08:16;;;;;;;0.30;0.30;;;0.50;99.90;;;;;;4938386;29;20454;-79
2022/01/19 06:10:45;;;;;;;0.30;0.30;;;0.50;99.90;;;;;;4938336;29;20561;-80
2022/01/19 06:13:16;;;;;;;0.30;0.20;;;0.50;99.90;;;;;;4938306;29;20455;-79
2022/01/19 06:15:44;;;;;;;0.30;0.20;;;0.50;99.90;;;;;;4938008;29;20799;-79
2022/01/19 06:18:11;;;;;;;0.30;0.30;;;0.50;99.90;;;;;;4938218;29;20447;-79
2022/01/19 06:20:39;;;;;;;0.30;0.27;;;0.50;99.90;;;;;;4938202;29;20458;-79
2022/01/19 06:23:06;;;;;;;0.30;0.27;;;0.50;99.90;;;;;;4938115;29;20466;-79
2022/01/19 06:25:33;;;;;;;0.40;0.40;;;0.50;99.90;;;;;;4937963;29;20482;-79
2022/01/19 06:28:01;;;;;;;0.53;0.53;;;0.50;99.90;;;;;;4938032;29;20466;-79
2022/01/19 06:30:29;;;;;;;0.30;0.30;;;0.60;99.90;;;;;;4937914;29;20514;-79
2022/01/19 06:32:56;;;;;;;0.30;0.30;;;0.50;99.90;;;;;;4937509;29;20970;-79
2022/01/19 06:35:23;;;;;;;0.30;0.27;;;0.60;99.90;;;;;;4937870;29;20478;-79
2022/01/19 06:37:50;;;;;;;0.30;0.20;;;0.60;99.90;;;;;;4938050;29;20548;-79
2022/01/19 06:40:18;;;;;;;0.30;0.30;;;0.60;99.90;;;;;;4937819;29;20458;-79
2022/01/19 06:42:45;;;;;;;0.50;0.50;;;0.60;99.90;;;;;;4938036;29;20451;-78
2022/01/19 06:45:13;;;;;;;0.30;0.20;;;0.50;99.90;;;;;;4937545;29;20994;-77
2022/01/19 06:47:42;;;;;;;0.30;0.30;;;0.50;99.90;;;;;;4937667;29;20459;-77
2022/01/19 06:50:10;;;;;;;0.30;0.30;;;0.50;99.90;;;;;;4937246;29;20494;-77
2022/01/19 06:52:38;;;;;;;1.07;0.70;;;0.40;99.90;;;;;;4937588;29;20478;-75
2022/01/19 06:55:06;;;;;;;0.70;0.50;;;0.30;99.90;;;;;;4937099;29;20490;-75
2022/01/19 06:57:33;;;;;;;0.30;0.30;;;0.30;99.90;;;;;;4937348;29;20459;-75
2022/01/19 07:00:00;;;;;;;0.30;0.30;;;0.20;99.90;;;;;;4937229;29;20451;-76
2022/01/19 07:02:28;;;;;;;0.30;0.20;;;0.20;99.90;;;;;;4937424;29;20455;-77
2022/01/19 07:04:56;;;;;;;0.30;0.30;;;0.20;99.90;;;;;;4937325;29;20479;-78
2022/01/19 07:07:24;;;;;;;0.30;0.20;;;0.20;99.90;;;;;;4937268;29;20459;-78
2022/01/19 07:09:51;;;;;;;0.30;0.30;;;0.20;99.90;;;;;;4936869;29;20463;-78
2022/01/19 07:12:17;;;;;;;0.93;0.93;;;0.10;99.90;;;;;;4936217;29;20439;-78
2022/01/19 07:14:45;;;;;;;0.30;0.30;;;0.10;99.90;;;;;;4937365;29;20479;-78
2022/01/19 07:17:11;;;;;;;0.30;0.30;;;0.00;99.90;;;;;;4936932;29;20487;-78
2022/01/19 07:19:38;;;;;;;0.30;0.30;;;0.00;99.90;;;;;;4937150;29;20455;-78
2022/01/19 07:22:06;;;;;;;0.40;0.40;;;0.00;99.90;;;;;;4937316;29;20430;-78
2022/01/19 07:24:33;;;;;;;0.40;0.40;;;0.10;99.90;;;;;;4936942;29;20478;-78
2022/01/19 07:27:00;;;;;;;0.93;0.93;;;0.00;99.90;;;;;;4936955;29;20459;-77
2022/01/19 07:29:27;;;;;;;0.30;0.30;;;0.00;99.90;;;;;;4936657;29;20951;-78
2022/01/19 07:31:55;;;;;;;0.50;0.50;;;0.00;99.90;;;;;;4936844;29;20530;-78
2022/01/19 07:34:22;;;;;;;0.60;0.50;;;0.10;99.90;;;;;;4936776;29;20483;-78
2022/01/19 07:36:49;;;;;;;2.00;0.97;;;0.10;99.90;;;;;;4936810;29;20458;-78
2022/01/19 07:39:17;;;;;;;0.80;0.80;;;0.10;99.90;;;;;;4936743;29;20450;-78
2022/01/19 07:41:43;;;;;;;0.40;0.40;;;0.10;99.90;;;;;;4936732;29;20460;-78
2022/01/19 07:44:10;;;;;;;0.30;0.30;;;0.10;99.90;;;;;;4936622;29;20472;-78
2022/01/19 07:46:37;;;;;;;2.70;0.83;;;0.10;99.90;;;;;;4936610;29;20459;-78
2022/01/19 07:49:04;;;;;;;0.30;0.30;;;0.10;99.90;;;;;;4936590;29;20462;-78
2022/01/19 07:51:31;;;;;;;0.40;0.40;;;0.10;99.90;;;;;;4936480;29;20502;-78
2022/01/19 07:53:58;;;;;;;0.30;0.23;;;0.10;99.90;;;;;;4936569;29;20466;-78
2022/01/19 07:56:26;;;;;;;0.30;0.20;;;0.10;99.90;;;;;;4936117;29;20842;-78
2022/01/19 07:58:52;;;;;;;0.30;0.20;;;0.20;99.90;;;;;;4936449;29;20827;-78
2022/01/19 08:01:19;;;;;;;0.30;0.30;;;0.20;99.90;;;;;;4936432;29;20446;-78
2022/01/19 08:03:46;;;;;;;0.70;0.70;;;0.20;99.90;;;;;;4936330;29;20446;-78
2022/01/19 08:06:13;;;;;;;0.60;0.60;;;0.30;99.90;;;;;;4936019;29;20947;-78
2022/01/19 08:08:40;;;;;;;0.40;0.40;;;0.20;99.90;;;;;;4936295;29;20452;-78
2022/01/19 08:11:06;;;;;;;0.63;0.50;;;0.30;99.90;;;;;;4935915;29;21000;-78
2022/01/19 08:13:35;;;;;;;1.13;1.13;;;0.30;99.90;;;;;;4935857;29;20935;-78
2022/01/19 08:16:01;;;;;;;0.47;0.47;;;0.40;99.90;;;;;;4935917;29;20947;-78
2022/01/19 08:18:28;;;;;;;0.30;0.30;;;0.40;99.90;;;;;;4936070;29;20467;-77
2022/01/19 08:20:55;;;;;;;0.30;0.30;;;0.40;99.90;;;;;;4936201;29;20435;-77
2022/01/19 08:23:21;;;;;;;0.30;0.30;;;0.50;99.90;;;;;;4935638;29;20455;-76
2022/01/19 08:25:48;;;;;;;0.60;0.40;;;0.60;99.90;;;;;;4935859;29;20463;-78
2022/01/19 08:28:15;;;;;;;0.40;0.40;;;0.60;99.90;;;;;;4936077;29;20456;-78
2022/01/19 08:30:44;;;;;;;0.30;0.30;;;0.60;99.90;;;;;;4936007;29;20854;-78
2022/01/19 08:33:11;;;;;;;0.30;0.30;;;0.60;99.90;;;;;;4936072;29;20454;-78
2022/01/19 08:35:38;;;;;;;0.53;0.40;;;0.70;99.90;;;;;;4936011;29;21021;-78
2022/01/19 08:38:05;;;;;;;0.30;0.30;;;0.70;99.90;;;;;;4936077;29;20797;-78
2022/01/19 08:40:34;;;;;;;0.30;0.30;;;0.80;99.90;;;;;;4936062;29;20439;-79
2022/01/19 08:43:01;;;;;;;0.90;0.90;;;0.80;99.90;;;;;;4936027;29;20451;-79
2022/01/19 08:45:28;;;;;;;0.30;0.30;;;0.80;99.90;;;;;;4935927;29;20475;-79
2022/01/19 08:47:56;;;;;;;0.30;0.30;;;0.80;99.90;;;;;;4936005;29;20440;-77
2022/01/19 08:50:23;;;;;;;0.30;0.30;;;0.90;99.90;;;;;;4935590;29;20908;-77
2022/01/19 08:52:50;;;;;;;0.30;0.20;;;1.00;99.90;;;;;;4935920;29;20428;-77
2022/01/19 08:55:18;;;;;;;0.40;0.40;;;1.10;99.90;;;;;;4935854;29;20495;-80
2022/01/19 08:57:46;;;;;;;0.40;0.37;;;1.20;99.90;;;;;;4935652;29;20415;-77
2022/01/19 09:00:15;;;;;;;0.30;0.30;;;1.90;99.90;;;;;;4935900;29;20447;-76
2022/01/19 09:02:42;;;;;;;0.30;0.30;;;2.80;99.90;;;;;;4935778;29;20442;-77
2022/01/19 09:05:11;;;;;;;2.20;0.77;;;3.80;99.90;;;;;;4936118;29;20467;-77
2022/01/19 09:07:38;;;;;;;0.73;0.73;;;5.00;99.90;;;;;;4935446;29;20924;-77
2022/01/19 09:10:08;;;;;;;0.67;0.47;;;6.20;99.90;;;;;;4935833;29;20428;-77
2022/01/19 09:12:35;;;;;;;0.30;0.20;;;7.20;99.90;;;;;;4935704;29;20494;-77
2022/01/19 09:15:02;;;;;;;0.40;0.40;;;8.20;99.90;;;;;;4935675;29;20482;-78
2022/01/19 09:17:29;;;;;;;1.07;0.30;;;8.90;99.90;;;;;;4935754;29;20446;-77
2022/01/19 09:19:55;;;;;;;0.30;0.27;;;8.70;99.90;;;;;;4935691;29;20447;-77
2022/01/19 09:22:24;;;;;;;0.60;0.60;;;8.20;99.90;;;;;;4935869;29;20454;-77
2022/01/19 09:24:51;;;;;;;0.30;0.20;;;8.70;99.90;;;;;;4935577;29;20468;-77
2022/01/19 09:27:18;;;;;;;0.70;0.53;;;9.60;99.90;;;;;;4935401;29;20788;-77
2022/01/19 09:29:46;;;;;;;2.93;0.40;;;11.00;99.90;;;;;;4935547;29;20457;-78
2022/01/19 09:32:13;;;;;;;0.40;0.40;;;11.70;98.50;;;;;;4935503;29;20483;-78
2022/01/19 09:34:42;;;;;;;2.87;0.93;;;12.80;97.10;;;;;;4936417;29;20479;-78
2022/01/19 09:37:09;;;;;;;1.10;0.60;;;13.40;93.60;;;;;;4938803;29;20459;-78
2022/01/19 09:39:37;;;;;;;1.07;0.77;;;13.80;91.50;;;;;;4938971;29;20458;-78
2022/01/19 09:42:05;;;;;;;0.73;0.50;;;13.90;86.10;;;;;;4938928;29;20454;-78
2022/01/19 09:44:32;;;;;;;0.97;0.87;;;13.30;83.90;;;;;;4938732;29;20493;-78
2022/01/19 09:46:59;;;;;;;0.97;0.97;;;12.70;85.50;;;;;;4938828;29;20447;-78
2022/01/19 09:49:26;;;;;;;0.90;0.53;;;12.20;85.50;;;;;;4938785;29;20447;-78
2022/01/19 09:51:55;;;;;;;2.50;0.73;;;11.70;85.90;;;;;;4938879;29;20482;-78
2022/01/19 09:54:24;;;;;;;2.30;0.90;;;11.30;89.50;;;;;;4938095;29;20983;-80
2022/01/19 09:56:53;;;;;;;1.30;0.67;;;11.20;88.90;;;;;;4938681;29;20443;-80
2022/01/19 09:59:22;;;;;;;1.40;1.30;;;11.30;88.10;;;;;;4938582;29;20460;-80
2022/01/19 10:01:51;;;;;;;0.87;0.73;;;11.50;88.20;;;;;;4938520;29;20483;-80
2022/01/19 10:04:18;;;;;;;0.80;0.70;;;11.80;87.40;;;;;;4938422;29;20474;-78
2022/01/19 10:06:45;;;;;;;5.37;1.00;;;12.60;86.10;;;;;;4938489;29;20435;-78
2022/01/19 10:09:12;;;;;;;1.80;0.90;;;13.60;80.70;;;;;;4938400;29;20459;-78
2022/01/19 10:17:10;;;;;;;1.10;0.97;;;16.70;70.60;;;;;;4938410;29;20407;-78
2022/01/19 10:19:41;;;;;;;2.10;1.07;;;17.10;68.00;;;;;;4938250;29;20469;-78
2022/01/19 10:22:11;;;;;;;1.33;0.90;;;17.50;64.20;;;;;;4937926;29;20904;-78
2022/01/19 10:24:46;;;;;;;1.47;0.93;;;17.10;61.20;;;;;;4938110;29;20553;-78
2022/01/19 10:27:32;;;;;;;2.40;1.43;;;15.70;61.90;;;;;;4937855;29;20777;-78
2022/01/19 10:30:22;;;;;;;2.70;0.70;;;14.50;65.00;;;;;;4938093;29;20431;-78
2022/01/19 10:32:51;;;;;;;1.37;0.77;;;12.90;67.70;;;;;;4937666;29;21042;-78
2022/01/19 10:35:27;;;;;;;0.67;0.67;;;11.70;71.80;;;;;;4938113;29;20471;-78
2022/01/19 10:38:11;;;;;;;1.13;0.70;;;10.50;75.40;;;;;;4937914;29;20443;-78
2022/01/19 10:40:39;;;;;;;0.60;0.40;;;9.60;80.20;;;;;;4937928;29;20435;-79
2022/01/19 10:43:27;;;;;;;1.40;1.30;;;9.00;83.50;;;;;;4937802;29;20443;-79
2022/01/19 10:45:56;;;;;;;1.17;0.40;;;8.70;86.40;;;;;;4937530;29;20451;-79
2022/01/19 10:48:37;;;;;;;2.40;0.60;;;8.40;88.70;;;;;;4937755;29;20447;-79
2022/01/19 10:51:13;;;;;;;1.17;0.50;;;8.20;90.40;;;;;;4937610;29;20475;-79
2022/01/19 10:53:41;;;;;;;0.40;0.30;;;8.20;90.50;;;;;;4937594;29;20537;-79
2022/01/19 10:56:25;;;;;;;1.70;0.40;;;8.40;90.80;;;;;;4937224;29;20998;-79
2022/01/19 10:58:57;;;;;;;0.37;0.37;;;8.30;90.40;;;;;;4937211;29;20487;-79
2022/01/19 11:01:38;;;;;;;0.40;0.40;;;8.40;90.50;;;;;;4937444;29;20423;-79
2022/01/19 11:04:27;;;;;;;0.40;0.40;;;8.30;90.70;;;;;;4937407;29;20478;-79
2022/01/19 11:06:57;;;;;;;0.77;0.30;;;8.10;91.40;;;;;;4937403;29;20439;-79
2022/01/19 11:09:26;;;;;;;2.53;0.43;;;7.90;91.70;;;;;;4937082;29;20927;-79
2022/01/19 11:11:53;;;;;;;1.53;0.40;;;7.70;92.50;;;;;;4937130;29;20526;-79
2022/01/19 11:14:20;;;;;;;0.30;0.30;;;7.40;93.00;;;;;;4937188;29;20479;-78
2022/01/19 11:16:48;;;;;;;0.37;0.30;;;7.30;93.60;;;;;;4936983;29;20927;-78
2022/01/19 11:19:16;;;;;;;1.07;0.77;;;7.20;94.60;;;;;;4937178;29;20435;-78
2022/01/19 11:21:52;;;;;;;0.30;0.30;;;7.10;95.00;;;;;;4937105;29;20458;-78
2022/01/19 11:24:29;;;;;;;0.50;0.50;;;7.00;94.90;;;;;;4937005;29;20471;-78
2022/01/19 11:26:57;;;;;;;0.43;0.30;;;7.00;95.70;;;;;;4937532;29;20463;-78
2022/01/19 11:29:25;;;;;;;0.30;0.30;;;7.00;96.00;;;;;;4936824;29;20416;-78
2022/01/19 11:31:56;;;;;;;0.30;0.30;;;6.90;96.30;;;;;;4936865;29;20483;-78
2022/01/19 11:34:40;;;;;;;1.03;0.50;;;6.90;96.50;;;;;;4936547;29;20845;-78
2022/01/19 11:37:07;;;;;;;0.50;0.50;;;6.90;97.40;;;;;;4936860;29;20848;-79
2022/01/19 11:39:34;;;;;;;0.37;0.33;;;7.00;97.10;;;;;;4936839;29;20444;-78
2022/01/19 11:42:03;;;;;;;0.30;0.30;;;7.00;97.10;;;;;;4936462;29;20927;-78
2022/01/19 11:44:39;;;;;;;0.30;0.30;;;7.00;96.90;;;;;;4936617;29;20478;-77
2022/01/19 11:47:21;;;;;;;0.30;0.30;;;7.00;97.50;;;;;;4936975;29;20431;-77
2022/01/19 11:49:51;;;;;;;0.40;0.33;;;7.00;97.50;;;;;;4936679;29;20432;-77
2022/01/19 11:52:21;;;;;;;1.23;1.13;;;7.00;97.60;;;;;;4936601;29;20505;-79
2022/01/19 11:54:49;;;;;;;0.30;0.30;;;6.90;97.60;;;;;;4936307;29;20496;-78
2022/01/19 11:57:17;;;;;;;0.67;0.67;;;6.90;97.90;;;;;;4935641;29;20831;-77
2022/01/19 12:00:26;;;;;;;0.30;0.30;;;6.80;98.30;;;;;;4936750;29;20444;-77
2022/01/19 12:02:57;;;;;;;0.73;0.73;;;6.70;98.90;;;;;;4935946;29;20478;-77
2022/01/19 12:05:30;;;;;;;0.40;0.40;;;6.60;99.50;;;;;;4936306;29;20478;-77
2022/01/19 12:07:59;;;;;;;0.70;0.70;;;6.60;99.40;;;;;;4936403;29;20447;-77
2022/01/19 12:10:45;;;;;;;0.83;0.30;;;6.60;99.70;;;;;;4936367;29;20469;-77
2022/01/19 12:16:49;;;;;;;0.50;0.50;;;6.40;99.90;;;;;;4904277;29;20531;-77
2022/01/19 12:19:21;;;;;;;0.40;0.40;;;6.50;99.90;;;;;;4936524;29;20447;-77
2022/01/19 12:21:50;;;;;;;0.30;0.30;;;6.40;99.90;;;;;;4935934;29;21018;-77
2022/01/19 12:24:24;;;;;;;0.90;0.47;;;6.40;99.90;;;;;;4936773;29;20471;-77
2022/01/19 12:27:07;;;;;;;0.70;0.40;;;6.40;99.90;;;;;;4936439;29;20439;-77
2022/01/19 12:29:46;;;;;;;0.30;0.20;;;6.30;99.90;;;;;;4932883;29;20466;-77
2022/01/19 12:32:36;;;;;;;0.47;0.33;;;6.30;99.90;;;;;;4936045;29;20482;-77
2022/01/19 12:35:14;;;;;;;0.60;0.50;;;6.30;99.90;;;;;;4936048;29;20471;-77
2022/01/19 12:37:44;;;;;;;0.40;0.40;;;6.30;99.90;;;;;;4936100;29;20435;-78
2022/01/19 12:40:40;;;;;;;0.40;0.40;;;6.30;99.90;;;;;;4935904;29;20468;-78
2022/01/19 12:43:09;;;;;;;0.47;0.47;;;6.30;99.90;;;;;;4936368;29;20463;-78
2022/01/19 12:45:45;;;;;;;1.03;0.33;;;6.40;99.90;;;;;;4935981;29;20828;-78
2022/01/19 12:48:13;;;;;;;0.30;0.30;;;6.40;99.90;;;;;;4936013;29;20446;-78
2022/01/19 12:50:46;;;;;;;0.43;0.43;;;6.50;99.90;;;;;;4936242;29;20432;-78
2022/01/19 12:53:23;;;;;;;0.80;0.73;;;6.60;99.90;;;;;;4936016;29;20467;-78
2022/01/19 12:55:53;;;;;;;0.40;0.30;;;6.60;99.90;;;;;;4935595;29;20494;-78
2022/01/19 12:58:24;;;;;;;1.10;0.50;;;6.60;99.90;;;;;;4935959;29;20802;-78
2022/01/19 13:00:53;;;;;;;0.30;0.30;;;6.60;99.90;;;;;;4935955;29;20432;-78
2022/01/19 13:03:25;;;;;;;0.40;0.40;;;6.50;99.90;;;;;;4935792;29;20446;-78
2022/01/19 13:06:01;;;;;;;0.30;0.30;;;6.40;99.90;;;;;;4935896;29;20447;-78
2022/01/19 13:08:35;;;;;;;0.40;0.30;;;6.30;99.90;;;;;;4936538;29;20434;-78
2022/01/19 13:11:11;;;;;;;0.50;0.50;;;6.20;99.90;;;;;;4940085;29;20435;-78
2022/01/19 13:13:54;;;;;;;2.53;0.80;;;6.10;99.90;;;;;;4939310;29;20494;-77
2022/01/19 13:16:44;;;;;;;0.30;0.30;;;6.10;99.90;;;;;;4939420;29;20439;-77
2022/01/19 13:19:15;;;;;;;0.30;0.30;;;6.00;99.90;;;;;;4934465;29;20463;-77
2022/01/19 13:21:45;;;;;;;0.50;0.50;;;6.00;99.90;;;;;;4939021;29;20778;-77
2022/01/19 13:24:17;;;;;;;0.40;0.40;;;6.00;99.90;;;;;;4939608;29;20841;-76
2022/01/19 13:26:48;;;;;;;0.60;0.47;;;6.10;99.90;;;;;;4939243;29;20864;-77
2022/01/19 13:29:27;;;;;;;0.30;0.30;;;6.20;99.90;;;;;;4939082;29;20447;-77
2022/01/19 13:32:07;;;;;;;0.30;0.30;;;6.30;99.90;;;;;;4939075;29;20839;-77
2022/01/19 13:34:48;;;;;;;1.70;0.70;;;6.40;99.90;;;;;;4939527;29;20481;-77
2022/01/19 13:37:16;;;;;;;0.50;0.50;;;6.40;99.90;;;;;;4939034;29;20477;-77
2022/01/19 13:39:43;;;;;;;0.40;0.30;;;6.50;99.90;;;;;;4938971;29;20456;-77
2022/01/19 13:42:10;;;;;;;2.83;1.07;;;6.60;99.90;;;;;;4938856;29;20455;-77
2022/01/19 13:44:44;;;;;;;0.43;0.43;;;6.70;99.90;;;;;;4938595;29;20459;-77
2022/01/19 13:47:16;;;;;;;0.30;0.27;;;6.70;99.90;;;;;;4938892;29;20479;-77
2022/01/19 13:49:53;;;;;;;0.40;0.40;;;6.50;99.90;;;;;;4938860;29;20567;-77
2022/01/19 13:52:23;;;;;;;0.30;0.30;;;6.30;99.90;;;;;;4938678;29;20539;-77
2022/01/19 13:54:50;;;;;;;0.40;0.30;;;6.20;99.90;;;;;;4938353;29;20557;-77
2022/01/19 13:57:27;;;;;;;0.30;0.20;;;6.10;99.90;;;;;;4938680;29;20451;-77
2022/01/19 13:59:55;;;;;;;0.50;0.50;;;6.00;99.90;;;;;;4938682;29;20463;-78
2022/01/19 14:02:23;;;;;;;1.03;0.70;;;5.80;99.90;;;;;;4938527;29;20451;-78
2022/01/19 14:04:54;;;;;;;0.97;0.97;;;5.70;99.90;;;;;;4938438;29;20511;-78
2022/01/19 14:07:22;;;;;;;0.30;0.30;;;5.70;99.90;;;;;;4938124;29;20466;-82
2022/01/19 14:09:49;;;;;;;0.47;0.47;;;5.70;99.90;;;;;;4938353;29;20458;-77
2022/01/19 14:12:19;;;;;;;0.40;0.40;;;5.70;99.90;;;;;;4937991;29;20999;-77
2022/01/19 14:14:54;;;;;;;0.30;0.27;;;5.70;99.90;;;;;;4938074;29;20487;-77
2022/01/19 14:17:26;;;;;;;0.70;0.30;;;5.70;99.90;;;;;;4938034;29;20446;-77